Time;durP1;ratioP1;P1;durP2;ratioP2;P2;SDS_P1;SDS_P2;PMS_P1;PMS_P2;Temp;Humidity;BMP_temperature;BMP_pressure;BME280_temperature;BME280_humidity;BME280_pressure;Samples;Min_cycle;Max_cycle;Signal;HPM_P1;HPM_P2
2021/04/15 00:00:30;;;;;;;10.13;6.43;;;;;;;2.75;100.00;99040.38;5026819;28;20663;-68
2021/04/15 00:02:58;;;;;;;10.70;7.00;;;;;;;2.81;100.00;99039.88;5024143;28;20210;-68
2021/04/15 00:05:27;;;;;;;12.07;7.47;;;;;;;2.79;100.00;99038.34;5027209;28;20809;-68
2021/04/15 00:07:54;;;;;;;12.97;6.70;;;;;;;2.85;100.00;99037.81;5025848;28;20240;-68
2021/04/15 00:10:24;;;;;;;11.57;7.50;;;;;;;2.75;100.00;99032.47;5027223;28;20210;-68
2021/04/15 00:12:51;;;;;;;12.63;7.10;;;;;;;2.70;100.00;99039.91;5032101;28;20233;-67
2021/04/15 00:15:18;;;;;;;14.10;7.33;;;;;;;2.72;100.00;99037.16;5029854;28;20325;-68
2021/04/15 00:17:46;;;;;;;14.03;7.47;;;;;;;2.66;100.00;99037.66;5022598;28;20206;-68
2021/04/15 00:20:13;;;;;;;13.97;7.43;;;;;;;2.61;100.00;99027.53;5031042;28;20781;-68
2021/04/15 00:22:40;;;;;;;14.37;7.60;;;;;;;2.52;100.00;99024.78;5027177;28;20217;-68
2021/04/15 00:25:08;;;;;;;13.37;7.27;;;;;;;2.52;100.00;99025.63;5026344;28;20230;-68
2021/04/15 00:27:35;;;;;;;16.10;7.83;;;;;;;2.53;100.00;99015.91;5029189;28;20210;-70
2021/04/15 00:30:02;;;;;;;14.77;8.13;;;;;;;2.53;100.00;99018.56;5026993;28;20214;-68
2021/04/15 00:32:29;;;;;;;12.87;7.93;;;;;;;2.54;100.00;99015.81;5022599;28;20198;-68
2021/04/15 00:34:57;;;;;;;15.33;8.83;;;;;;;2.51;100.00;99017.84;5023285;28;20283;-68
2021/04/15 00:37:23;;;;;;;13.93;7.47;;;;;;;2.45;100.00;99011.28;5027228;28;20210;-68
2021/04/15 00:39:50;;;;;;;13.83;8.07;;;;;;;2.48;100.00;99012.81;5032203;28;20203;-68
2021/04/15 00:42:17;;;;;;;14.43;7.57;;;;;;;2.52;100.00;99004.56;5027154;28;20217;-67
2021/04/15 00:44:44;;;;;;;16.37;8.70;;;;;;;2.50;100.00;99009.09;5026387;28;20227;-68
2021/04/15 00:47:14;;;;;;;14.47;8.63;;;;;;;2.52;100.00;99008.97;5025753;28;21089;-68
2021/04/15 00:49:43;;;;;;;13.23;8.83;;;;;;;2.45;100.00;99013.09;5023779;28;20229;-68
2021/04/15 00:52:12;;;;;;;20.47;9.20;;;;;;;2.31;100.00;99008.13;5025501;28;20210;-68
2021/04/15 00:54:42;;;;;;;16.87;8.80;;;;;;;2.40;100.00;98999.47;5031086;28;20280;-68
2021/04/15 00:57:14;;;;;;;15.40;8.70;;;;;;;2.33;100.00;99000.91;5024685;28;20259;-68
2021/04/15 00:59:41;;;;;;;17.90;8.40;;;;;;;2.32;100.00;99002.72;5029410;28;20210;-68
2021/04/15 01:02:10;;;;;;;15.43;9.00;;;;;;;2.40;100.00;99002.91;5025964;28;20210;-69
2021/04/15 01:04:37;;;;;;;17.07;9.17;;;;;;;2.37;100.00;99002.34;5029046;28;20222;-68
2021/04/15 01:07:04;;;;;;;15.43;9.23;;;;;;;2.34;100.00;98998.16;5024703;28;20210;-68
2021/04/15 01:09:32;;;;;;;16.53;8.77;;;;;;;2.25;100.00;98993.63;5028643;28;20206;-68
2021/04/15 01:12:09;;;;;;;18.17;9.37;;;;;;;2.27;100.00;98999.63;5024310;28;20211;-69
2021/04/15 01:14:51;;;;;;;14.53;9.17;;;;;;;2.27;100.00;98989.09;5029747;28;20225;-69
2021/04/15 01:17:22;;;;;;;15.13;8.60;;;;;;;2.38;100.00;98989.06;5027001;28;20213;-68
2021/04/15 01:20:09;;;;;;;18.50;9.07;;;;;;;2.21;100.00;98981.72;5028907;28;20272;-68
2021/04/15 01:22:53;;;;;;;14.40;8.57;;;;;;;2.29;100.00;98984.53;5028752;28;20226;-68
2021/04/15 01:25:30;;;;;;;14.53;8.77;;;;;;;2.20;100.00;98987.91;5027830;28;20226;-68
2021/04/15 01:28:02;;;;;;;14.93;8.90;;;;;;;2.30;100.00;98986.19;5030856;28;20248;-69
2021/04/15 01:30:35;;;;;;;13.57;8.80;;;;;;;2.22;100.00;98982.53;5022755;28;20664;-68
2021/04/15 01:33:10;;;;;;;16.70;8.77;;;;;;;2.25;100.00;98980.47;5023770;28;20202;-68
2021/04/15 01:35:41;;;;;;;15.87;8.90;;;;;;;2.15;100.00;98989.25;5026662;28;20226;-68
2021/04/15 01:38:12;;;;;;;16.17;7.83;;;;;;;2.18;100.00;98981.94;5030010;28;20210;-68
2021/04/15 01:40:41;;;;;;;14.97;8.93;;;;;;;2.16;100.00;98990.94;5029539;28;20210;-68
2021/04/15 01:43:14;;;;;;;15.30;8.77;;;;;;;2.20;100.00;98987.91;5030072;28;20203;-69
2021/04/15 01:45:41;;;;;;;15.47;8.10;;;;;;;2.18;100.00;98984.56;5024017;28;20884;-68
2021/04/15 01:48:11;;;;;;;15.40;8.53;;;;;;;2.15;100.00;98982.22;5026698;28;20206;-68
2021/04/15 01:50:41;;;;;;;12.27;7.30;;;;;;;2.29;100.00;98987.16;5027461;28;20245;-68
2021/04/15 01:53:11;;;;;;;14.03;7.60;;;;;;;2.28;100.00;98982.03;5025998;28;20260;-68
2021/04/15 01:55:42;;;;;;;13.60;7.63;;;;;;;2.13;100.00;98992.00;5026199;28;20228;-68
2021/04/15 01:58:12;;;;;;;12.77;7.47;;;;;;;2.11;100.00;98985.19;5029842;28;20345;-68
2021/04/15 02:00:42;;;;;;;12.03;7.70;;;;;;;2.32;100.00;98986.94;5023399;28;20210;-68
2021/04/15 02:03:13;;;;;;;15.13;7.20;;;;;;;2.10;100.00;98991.44;5028628;28;20214;-69
2021/04/15 02:05:41;;;;;;;12.93;7.10;;;;;;;2.22;100.00;98991.28;5032281;28;20244;-69
2021/04/15 02:08:11;;;;;;;16.40;7.60;;;;;;;2.18;100.00;98986.41;5033771;28;20210;-69
2021/04/15 02:10:42;;;;;;;12.77;6.87;;;;;;;2.15;100.00;98986.63;5029105;28;20210;-69
2021/04/15 02:13:11;;;;;;;11.20;6.70;;;;;;;2.07;100.00;98984.63;5024982;28;20560;-69
2021/04/15 02:15:45;;;;;;;14.67;6.77;;;;;;;2.14;100.00;98988.41;5033179;28;20225;-69
2021/04/15 02:18:15;;;;;;;10.23;6.57;;;;;;;2.21;100.00;98988.75;5033073;28;20261;-69
2021/04/15 02:20:42;;;;;;;12.73;6.30;;;;;;;2.17;100.00;98989.97;5034311;28;20578;-68
2021/04/15 02:23:13;;;;;;;9.93;6.10;;;;;;;2.14;100.00;98995.50;5029460;28;20214;-69
2021/04/15 02:25:42;;;;;;;11.10;6.17;;;;;;;2.17;100.00;98998.72;5032859;28;20238;-69
2021/04/15 02:28:13;;;;;;;10.07;6.13;;;;;;;2.13;100.00;98992.00;5027565;28;20206;-69
2021/04/15 02:30:44;;;;;;;9.00;5.87;;;;;;;1.95;100.00;98992.66;5030603;28;20207;-69
2021/04/15 02:33:17;;;;;;;8.70;5.50;;;;;;;2.07;100.00;98997.78;5025670;28;20710;-69
2021/04/15 02:35:45;;;;;;;11.27;6.27;;;;;;;1.92;100.00;99001.66;5032695;28;20226;-69
2021/04/15 02:38:13;;;;;;;9.67;6.37;;;;;;;2.05;100.00;98999.72;5033349;28;20203;-69
2021/04/15 02:40:43;;;;;;;9.73;5.47;;;;;;;2.01;100.00;98997.44;5031851;28;20576;-69
2021/04/15 02:43:15;;;;;;;13.60;5.90;;;;;;;2.07;100.00;98997.78;5029805;28;20203;-69
2021/04/15 02:45:44;;;;;;;9.73;5.43;;;;;;;2.09;100.00;99000.28;5026345;28;20273;-69
2021/04/15 02:48:15;;;;;;;8.97;5.40;;;;;;;2.04;100.00;98995.38;5026720;28;20300;-69
2021/04/15 02:50:42;;;;;;;9.63;5.97;;;;;;;2.04;100.00;99003.28;5027243;28;20798;-69
2021/04/15 02:53:11;;;;;;;11.40;6.10;;;;;;;2.03;100.00;99001.63;5022615;28;20207;-69
2021/04/15 02:55:43;;;;;;;9.33;5.13;;;;;;;1.89;100.00;98999.25;5030551;28;20225;-69
2021/04/15 02:58:16;;;;;;;8.30;4.80;;;;;;;1.96;100.00;98999.59;5033193;28;20313;-69
2021/04/15 03:00:47;;;;;;;12.13;5.67;;;;;;;1.93;100.00;99000.69;5026832;28;20585;-69
2021/04/15 03:03:16;;;;;;;7.20;5.30;;;;;;;1.94;100.00;99002.34;5026748;28;20206;-69
2021/04/15 03:05:46;;;;;;;7.80;5.03;;;;;;;1.92;100.00;99001.66;5019425;28;20336;-69
2021/04/15 03:08:16;;;;;;;9.53;5.43;;;;;;;1.80;100.00;98992.13;5032751;28;20206;-70
2021/04/15 03:10:48;;;;;;;9.00;5.23;;;;;;;1.97;100.00;98999.47;5026009;28;20579;-69
2021/04/15 03:13:16;;;;;;;8.60;5.27;;;;;;;1.88;100.00;98986.25;5031265;28;20224;-69
2021/04/15 03:15:46;;;;;;;9.60;5.23;;;;;;;1.99;100.00;98999.38;5029114;28;20299;-69
2021/04/15 03:18:17;;;;;;;8.50;4.67;;;;;;;1.81;100.00;98992.94;5031139;28;20249;-69
2021/04/15 03:20:47;;;;;;;12.20;5.37;;;;;;;1.77;100.00;98981.81;5029865;28;20206;-69
2021/04/15 03:23:28;;;;;;;8.33;5.57;;;;;;;1.78;100.00;98985.31;5028347;28;20209;-69
2021/04/15 03:25:57;;;;;;;9.60;4.80;;;;;;;1.81;100.00;98990.31;5029654;28;20574;-69
2021/04/15 03:28:30;;;;;;;9.77;4.83;;;;;;;1.76;100.00;98988.06;5031245;28;20221;-68
2021/04/15 03:30:59;;;;;;;8.63;4.53;;;;;;;1.71;100.00;98984.94;5029988;28;20206;-69
2021/04/15 03:33:30;;;;;;;8.70;5.33;;;;;;;1.69;100.00;98994.75;5030535;28;20202;-69
2021/04/15 03:36:00;;;;;;;7.90;5.07;;;;;;;1.71;100.00;98992.84;5031819;28;20591;-69
2021/04/15 03:38:30;;;;;;;11.60;5.10;;;;;;;1.74;100.00;98997.03;5023637;28;20209;-70
2021/04/15 03:40:59;;;;;;;7.87;4.67;;;;;;;1.64;100.00;98996.91;5030468;28;20202;-70
2021/04/15 03:43:29;;;;;;;10.87;6.47;;;;;;;1.56;100.00;99001.94;5030374;28;20202;-69
2021/04/15 03:46:03;;;;;;;7.77;4.70;;;;;;;1.69;100.00;98996.56;5029745;28;20221;-69
2021/04/15 03:48:35;;;;;;;11.20;5.77;;;;;;;1.65;100.00;98989.84;5027007;28;20789;-69
2021/04/15 03:51:06;;;;;;;7.10;5.20;;;;;;;1.85;100.00;98997.84;5029047;28;20210;-69
2021/04/15 03:53:36;;;;;;;8.70;5.60;;;;;;;1.84;100.00;98995.34;5028371;28;20240;-69
2021/04/15 03:56:05;;;;;;;7.43;4.70;;;;;;;1.84;100.00;98997.97;5030922;28;20222;-68
2021/04/15 03:58:35;;;;;;;10.60;5.23;;;;;;;1.84;100.00;99001.41;5031707;28;20207;-69
2021/04/15 04:01:06;;;;;;;10.57;5.33;;;;;;;1.95;100.00;98998.78;5026982;28;20225;-68
2021/04/15 04:03:36;;;;;;;8.90;4.67;;;;;;;2.00;100.00;99004.50;5024172;28;20264;-69
2021/04/15 04:06:06;;;;;;;11.83;5.47;;;;;;;1.97;100.00;99006.53;5026951;28;20280;-69
2021/04/15 04:08:42;;;;;;;9.00;5.23;;;;;;;1.93;100.00;99003.31;5025835;28;20217;-69
2021/04/15 04:11:10;;;;;;;11.37;5.07;;;;;;;1.85;100.00;99000.47;5030572;28;20209;-69
2021/04/15 04:13:40;;;;;;;12.07;5.50;;;;;;;1.80;100.00;99000.00;5024133;28;20230;-69
2021/04/15 04:16:11;;;;;;;7.90;5.17;;;;;;;1.81;100.00;99011.34;5026791;28;20225;-69
2021/04/15 04:18:46;;;;;;;8.40;4.77;;;;;;;1.77;100.00;99004.66;5025459;28;20257;-69
2021/04/15 04:21:17;;;;;;;11.57;5.33;;;;;;;1.86;100.00;99006.56;5029945;28;20201;-69
2021/04/15 04:23:47;;;;;;;8.40;5.33;;;;;;;1.83;100.00;99006.81;5031845;28;20210;-69
2021/04/15 04:26:20;;;;;;;7.40;5.07;;;;;;;1.88;100.00;99007.28;5032771;28;20308;-69
2021/04/15 04:29:04;;;;;;;7.70;4.87;;;;;;;1.90;100.00;99005.34;5031700;28;20217;-69
2021/04/15 04:31:34;;;;;;;8.70;5.03;;;;;;;2.00;100.00;99007.16;5025448;28;20212;-69
2021/04/15 04:34:02;;;;;;;12.03;5.00;;;;;;;1.88;100.00;99008.09;5026849;28;20237;-69
2021/04/15 04:36:30;;;;;;;10.90;5.43;;;;;;;1.97;100.00;99012.66;5024916;28;20244;-69
2021/04/15 04:38:57;;;;;;;10.87;4.70;;;;;;;1.90;100.00;99010.63;5030929;28;20212;-70
2021/04/15 04:41:27;;;;;;;7.17;4.33;;;;;;;1.97;100.00;99012.66;5025280;28;20206;-69
2021/04/15 04:43:56;;;;;;;9.97;4.80;;;;;;;2.11;100.00;99017.66;5028040;28;20564;-69
2021/04/15 04:46:31;;;;;;;8.73;5.20;;;;;;;2.02;100.00;99021.00;5024009;28;20957;-69
2021/04/15 04:49:01;;;;;;;9.73;4.90;;;;;;;2.12;100.00;99023.72;5031701;28;20616;-72
2021/04/15 04:51:42;;;;;;;12.90;4.90;;;;;;;2.17;100.00;99027.69;5021814;28;20208;-69
2021/04/15 04:54:09;;;;;;;9.17;5.27;;;;;;;2.21;100.00;99030.88;5021430;28;20252;-70
2021/04/15 04:56:40;;;;;;;9.90;5.13;;;;;;;2.20;100.00;99031.84;5023933;28;20348;-70
2021/04/15 04:59:15;;;;;;;15.53;5.73;;;;;;;2.22;100.00;99028.13;5029518;28;20210;-69
2021/04/15 05:01:42;;;;;;;10.33;4.83;;;;;;;2.19;100.00;99038.09;5026066;28;20206;-68
2021/04/15 05:04:12;;;;;;;11.13;5.17;;;;;;;2.44;100.00;99035.97;5027791;28;20199;-69
2021/04/15 05:06:41;;;;;;;7.20;4.70;;;;;;;2.38;100.00;99038.25;5031127;28;20561;-69
2021/04/15 05:09:11;;;;;;;6.03;4.63;;;;;;;2.58;100.00;99035.66;5031078;28;20203;-69
2021/04/15 05:11:41;;;;;;;7.97;5.20;;;;;;;2.56;100.00;99034.97;5029046;28;20206;-70
2021/04/15 05:14:08;;;;;;;7.67;4.90;;;;;;;2.75;100.00;99042.19;5027919;28;20703;-69
2021/04/15 05:16:38;;;;;;;9.10;4.67;;;;;;;2.81;100.00;99037.25;5030513;28;20203;-68
2021/04/15 05:19:05;;;;;;;9.43;4.73;;;;;;;2.88;100.00;99041.03;5026322;28;20214;-70
2021/04/15 05:21:33;;;;;;;11.60;4.60;;;;;;;3.04;100.00;99036.16;5024018;28;20218;-70
2021/04/15 05:24:07;;;;;;;6.87;4.33;;;;;;;3.01;100.00;99049.56;5028082;28;20268;-70
2021/04/15 05:26:36;;;;;;;8.90;5.03;;;;;;;3.15;100.00;99045.81;5028555;28;20229;-73
2021/04/15 05:29:05;;;;;;;14.40;4.77;;;;;;;3.24;100.00;99050.28;5030422;28;20214;-74
2021/04/15 05:31:33;;;;;;;6.73;4.33;;;;;;;3.26;100.00;99046.53;5030559;28;20367;-70
2021/04/15 05:34:02;;;;;;;8.87;4.70;;;;;;;3.36;100.00;99049.25;5024929;28;20226;-70
2021/04/15 05:36:34;;;;;;;6.37;4.03;;;;;;;3.47;100.00;99050.03;5026971;28;20222;-67
2021/04/15 05:39:03;;;;;;;11.53;3.97;;;;;;;3.66;100.00;99050.09;5026564;28;20210;-69
2021/04/15 05:41:33;;;;;;;10.07;4.53;;;;;;;3.71;100.00;99049.72;5026701;28;20255;-70
2021/04/15 05:44:03;;;;;;;6.20;3.80;;;;;;;3.72;100.00;99046.91;5020200;28;20686;-71
2021/04/15 05:46:37;;;;;;;7.73;3.37;;;;;;;3.84;100.00;99043.22;5020852;28;20226;-71
2021/04/15 05:49:04;;;;;;;8.63;3.80;;;;;;;3.89;100.00;99046.28;5025904;28;20249;-72
2021/04/15 05:51:45;;;;;;;7.37;3.50;;;;;;;3.74;100.00;99055.56;5027914;28;20202;-72
2021/04/15 05:54:15;;;;;;;7.70;3.47;;;;;;;3.75;100.00;99053.72;5025064;28;20639;-71
2021/04/15 05:56:58;;;;;;;7.43;3.20;;;;;;;4.15;100.00;99041.34;5017809;28;20214;-69
2021/04/15 05:59:34;;;;;;;4.53;2.83;;;;;;;3.39;100.00;99057.75;5024804;28;20237;-72
2021/04/15 06:02:13;;;;;;;5.67;3.07;;;;;;;4.14;100.00;99048.47;5018025;28;20252;-70
2021/04/15 06:04:44;;;;;;;5.10;2.93;;;;;;;4.41;100.00;99056.56;5018828;28;20234;-71
2021/04/15 06:07:18;;;;;;;9.57;2.90;;;;;;;3.70;100.00;99055.94;5026426;28;20725;-70
2021/04/15 06:09:45;;;;;;;5.80;2.97;;;;;;;3.64;100.00;99056.47;5019838;28;20207;-70
2021/04/15 06:12:17;;;;;;;10.23;2.83;;;;;;;3.62;100.00;99061.06;5027177;28;20736;-71
2021/04/15 06:14:47;;;;;;;6.53;3.23;;;;;;;4.26;100.00;99050.00;5022645;28;20694;-69
2021/04/15 06:17:28;;;;;;;4.83;3.10;;;;;;;4.34;100.00;99049.31;5028486;28;20328;-70
2021/04/15 06:19:58;;;;;;;6.93;3.17;;;;;;;4.81;100.00;99054.66;5025273;28;20211;-69
2021/04/15 06:22:27;;;;;;;5.10;3.33;;;;;;;4.32;100.00;99052.09;5022996;28;20213;-69
2021/04/15 06:24:58;;;;;;;7.57;3.37;;;;;;;4.68;99.54;99056.72;5026517;28;20233;-68
2021/04/15 06:27:25;;;;;;;8.13;2.77;;;;;;;4.84;99.56;99048.25;5022273;28;20721;-69
2021/04/15 06:29:57;;;;;;;8.53;3.37;;;;;;;5.07;97.65;99055.75;5028484;28;20690;-70
2021/04/15 06:32:28;;;;;;;6.33;2.97;;;;;;;5.13;95.00;99073.69;5025948;28;20217;-68
2021/04/15 06:34:56;;;;;;;3.73;2.50;;;;;;;5.39;93.27;99060.72;5027031;28;20279;-71
2021/04/15 06:37:35;;;;;;;8.30;2.67;;;;;;;5.13;95.40;99057.00;5021054;28;20210;-69
2021/04/15 06:40:20;;;;;;;5.87;2.70;;;;;;;4.99;95.92;99058.28;5022938;28;20217;-68
2021/04/15 06:43:13;;;;;;;5.43;2.70;;;;;;;4.55;97.72;99056.16;5027182;28;20249;-68
2021/04/15 06:45:53;;;;;;;5.63;3.43;;;;;;;4.34;100.00;99066.03;5018908;28;20230;-71
2021/04/15 06:48:52;;;;;;;6.87;3.03;;;;;;;4.95;92.75;99066.59;5022751;28;20225;-71
2021/04/15 06:51:33;;;;;;;7.07;3.23;;;;;;;5.40;89.03;99065.88;5015873;28;20202;-69
2021/04/15 06:54:11;;;;;;;8.43;3.07;;;;;;;5.43;88.84;99059.44;5032370;28;20233;-69
2021/04/15 06:56:46;;;;;;;8.23;3.20;;;;;;;5.30;92.31;99067.69;5033094;28;20210;-69
2021/04/15 06:59:38;;;;;;;7.37;2.77;;;;;;;5.27;89.63;99064.47;5030730;28;20210;-69
2021/04/15 07:02:08;;;;;;;4.93;2.80;;;;;;;5.42;90.30;99057.75;5026274;28;20219;-70
2021/04/15 07:04:43;;;;;;;5.57;3.10;;;;;;;5.86;84.13;99073.84;5032990;28;20601;-69
2021/04/15 07:07:12;;;;;;;5.30;2.63;;;;;;;6.35;81.64;99068.13;5031170;28;20209;-69
2021/04/15 07:10:01;;;;;;;6.97;3.40;;;;;;;5.57;83.28;99070.41;5032001;28;20211;-68
2021/04/15 07:13:07;;;;;;;4.90;2.87;;;;;;;5.80;84.42;99069.13;5023591;28;20573;-69
2021/04/15 07:16:07;;;;;;;5.70;2.93;;;;;;;6.23;79.82;99068.47;5028900;28;20233;-69
2021/04/15 07:19:09;;;;;;;3.80;2.70;;;;;;;6.07;78.99;99068.28;5031306;28;20202;-71
2021/04/15 07:21:58;;;;;;;5.60;3.10;;;;;;;7.12;75.90;99071.91;5022649;28;20255;-70
2021/04/15 07:24:37;;;;;;;4.73;2.73;;;;;;;6.70;78.03;99067.34;5021636;28;20213;-70
2021/04/15 07:27:42;;;;;;;3.67;2.30;;;;;;;6.37;78.74;99066.19;5024408;28;20292;-69
2021/04/15 07:30:28;;;;;;;6.90;3.27;;;;;;;6.49;79.45;99064.16;5027082;28;20206;-69
2021/04/15 07:33:22;;;;;;;5.60;2.90;;;;;;;6.23;80.13;99063.16;5029731;28;20206;-69
2021/04/15 07:36:18;;;;;;;6.60;2.90;;;;;;;6.60;76.00;99071.91;5027473;28;20595;-68
2021/04/15 07:39:01;;;;;;;8.70;2.90;;;;;;;6.76;72.00;99077.34;5020043;28;20220;-67
2021/04/15 07:41:37;;;;;;;4.87;3.23;;;;;;;6.42;75.22;99077.16;5025615;28;20289;-69
2021/04/15 07:44:28;;;;;;;6.27;3.23;;;;;;;6.97;73.92;99073.44;5028624;28;20233;-68
2021/04/15 07:47:19;;;;;;;4.73;3.30;;;;;;;7.58;71.51;99084.00;5025660;28;20199;-68
2021/04/15 07:49:59;;;;;;;5.67;3.47;;;;;;;7.56;70.36;99088.66;5031196;28;20210;-68
2021/04/15 07:53:05;;;;;;;12.20;3.27;;;;;;;8.33;64.97;99090.25;5025012;28;20207;-69
2021/04/15 07:55:47;;;;;;;4.50;2.90;;;;;;;7.01;67.31;99093.34;5024370;28;20311;-69
2021/04/15 07:58:42;;;;;;;5.90;3.30;;;;;;;6.82;70.88;99088.19;5021069;28;20203;-68
2021/04/15 08:01:34;;;;;;;5.13;3.33;;;;;;;6.77;70.94;99086.97;5030429;28;20260;-69
2021/04/15 08:04:15;;;;;;;10.20;3.47;;;;;;;7.37;68.90;99089.66;5026451;28;20208;-69
2021/04/15 08:06:58;;;;;;;6.10;3.23;;;;;;;7.44;67.45;99096.03;5026524;28;20687;-69
2021/04/15 08:09:33;;;;;;;6.83;3.27;;;;;;;8.08;61.45;99104.38;5022695;28;20309;-70
2021/04/15 08:12:32;;;;;;;5.83;3.30;;;;;;;7.56;67.95;99097.44;5019921;28;20287;-67
2021/04/15 08:15:13;;;;;;;4.60;3.07;;;;;;;7.96;64.95;99099.53;5027335;28;20277;-70
2021/04/15 08:18:06;;;;;;;4.87;3.17;;;;;;;8.55;59.92;99105.63;5028760;28;20212;-70
2021/04/15 08:20:50;;;;;;;8.17;3.00;;;;;;;8.01;59.85;99113.19;5027827;28;20217;-69
2021/04/15 08:23:43;;;;;;;5.63;2.83;;;;;;;7.32;64.66;99113.19;5025015;28;20573;-70
2021/04/15 08:26:39;;;;;;;8.43;3.23;;;;;;;7.35;64.82;99104.06;5025635;28;20326;-70
2021/04/15 08:29:28;;;;;;;5.30;3.10;;;;;;;7.91;64.61;99100.00;5026169;28;20208;-69
2021/04/15 08:32:03;;;;;;;8.27;3.23;;;;;;;8.19;62.89;99101.47;5029404;28;20214;-70
2021/04/15 08:34:40;;;;;;;5.03;3.50;;;;;;;7.62;58.98;99110.09;5025531;28;20621;-70
2021/04/15 08:37:17;;;;;;;7.53;3.47;;;;;;;7.98;59.98;99103.72;5028751;28;20209;-69
2021/04/15 08:39:55;;;;;;;10.30;3.33;;;;;;;7.97;59.07;99109.16;5028237;28;20214;-69
2021/04/15 08:42:34;;;;;;;5.90;2.93;;;;;;;8.46;58.61;99103.94;5029690;28;20204;-69
2021/04/15 08:45:23;;;;;;;5.10;3.10;;;;;;;7.88;59.31;99110.13;5031165;28;20286;-69
2021/04/15 08:47:58;;;;;;;5.17;3.07;;;;;;;7.77;60.03;99103.22;5024435;28;20238;-69
2021/04/15 08:50:54;;;;;;;7.80;3.37;;;;;;;7.73;59.45;99109.03;5023584;28;20206;-69
2021/04/15 08:53:36;;;;;;;5.30;3.20;;;;;;;8.36;57.26;99103.25;5022330;28;20205;-72
2021/04/15 08:56:06;;;;;;;4.07;2.93;;;;;;;9.03;55.46;99099.59;5022128;28;20229;-69
2021/04/15 08:59:08;;;;;;;4.60;2.60;;;;;;;8.33;54.44;99111.53;5025551;28;20625;-70
2021/04/15 09:01:44;;;;;;;6.80;3.40;;;;;;;8.72;53.57;99118.00;4996851;28;20212;-71
2021/04/15 09:04:14;;;;;;;7.93;2.80;;;;;;;8.49;52.33;99113.44;5029680;28;20724;-69
2021/04/15 09:06:45;;;;;;;4.57;2.73;;;;;;;9.05;49.99;99108.25;5024100;28;20207;-71
2021/04/15 09:09:20;;;;;;;4.97;2.77;;;;;;;9.59;47.94;99115.59;5031246;28;20215;-76
2021/04/15 09:11:57;;;;;;;3.27;2.37;;;;;;;9.87;45.54;99120.38;5037481;28;20202;-70
2021/04/15 09:14:36;;;;;;;4.20;2.63;;;;;;;9.71;44.40;99132.91;5041603;28;20280;-71
2021/04/15 09:17:05;;;;;;;4.13;2.53;;;;;;;9.16;46.30;99123.91;5037927;28;20216;-71
2021/04/15 09:19:59;;;;;;;6.20;2.70;;;;;;;8.68;48.11;99116.63;5033713;28;20214;-69
2021/04/15 09:22:50;;;;;;;4.60;2.60;;;;;;;9.64;47.53;99116.75;5026581;28;20206;-71
2021/04/15 09:25:20;;;;;;;4.77;2.80;;;;;;;9.52;48.46;99111.91;5027006;28;20282;-70
2021/04/15 09:27:55;;;;;;;5.07;2.73;;;;;;;9.53;49.57;99103.75;5029685;28;20203;-70
2021/04/15 09:30:45;;;;;;;3.47;2.50;;;;;;;10.10;45.99;99107.19;5026646;28;20252;-71
2021/04/15 09:33:16;;;;;;;4.53;2.97;;;;;;;9.64;46.60;99116.75;5007640;28;20210;-70
2021/04/15 09:36:02;;;;;;;5.97;3.00;;;;;;;9.77;47.84;99106.41;5026403;28;20233;-70
2021/04/15 09:39:13;;;;;;;4.10;2.70;;;;;;;9.79;46.98;99101.72;5024287;28;20212;-70
2021/04/15 09:42:08;;;;;;;6.67;2.83;;;;;;;9.32;47.06;99102.59;5028803;28;20211;-73
2021/04/15 09:44:54;;;;;;;4.67;2.57;;;;;;;10.36;46.70;99102.44;5024651;28;20222;-69
2021/04/15 09:47:36;;;;;;;5.07;2.47;;;;;;;10.17;44.75;99102.03;5024639;28;20583;-68
2021/04/15 09:50:18;;;;;;;5.80;2.47;;;;;;;10.80;43.06;99114.25;5027053;28;20220;-69
2021/04/15 09:53:08;;;;;;;3.83;1.90;;;;;;;11.11;42.62;99107.84;5027360;28;20306;-68
2021/04/15 09:56:12;;;;;;;6.00;2.33;;;;;;;10.18;42.07;99114.34;5016544;28;20253;-72
2021/04/15 09:58:45;;;;;;;4.53;2.37;;;;;;;10.67;42.61;99103.28;5025377;28;20210;-73
2021/04/15 10:01:17;;;;;;;5.33;2.10;;;;;;;10.56;42.35;99098.34;5025643;28;20268;-72
2021/04/15 10:03:49;;;;;;;3.93;2.33;;;;;;;10.29;43.16;99096.97;5028002;28;20207;-72
2021/04/15 10:06:20;;;;;;;3.43;2.00;;;;;;;10.66;41.84;99096.28;5025845;28;20584;-71
2021/04/15 10:09:08;;;;;;;3.50;2.23;;;;;;;11.55;39.01;99105.34;5028447;28;20682;-73
2021/04/15 10:11:53;;;;;;;3.37;1.80;;;;;;;11.37;37.38;99113.66;5027903;28;20256;-72
2021/04/15 10:14:30;;;;;;;3.10;1.80;;;;;;;10.80;39.01;99107.06;5027743;28;20233;-70
2021/04/15 10:17:08;;;;;;;5.30;1.87;;;;;;;10.40;39.45;99104.56;5022645;28;20678;-72
2021/04/15 10:19:53;;;;;;;2.77;1.70;;;;;;;11.15;39.29;99094.97;5024924;28;20202;-69
2021/04/15 10:22:34;;;;;;;10.57;2.60;;;;;;;11.07;38.48;99109.22;5028733;28;20213;-71
2021/04/15 10:25:06;;;;;;;4.00;1.80;;;;;;;10.86;40.42;99089.50;5032601;28;20234;-68
2021/04/15 10:27:50;;;;;;;4.47;2.20;;;;;;;10.50;43.02;99083.84;5028257;28;20210;-72
2021/04/15 10:30:40;;;;;;;3.70;2.20;;;;;;;10.38;43.26;99093.25;5027852;28;20206;-77
2021/04/15 10:33:32;;;;;;;3.10;1.80;;;;;;;10.09;45.08;99095.69;5021971;28;20199;-70
2021/04/15 10:36:43;;;;;;;2.90;1.97;;;;;;;9.07;48.62;99077.78;5032577;28;20268;-72
2021/04/15 10:39:36;;;;;;;3.17;2.00;;;;;;;8.70;50.75;99068.59;5024449;28;20207;-74
2021/04/15 10:42:30;;;;;;;3.13;2.00;;;;;;;10.05;45.71;99078.34;5030471;28;20212;-71
2021/04/15 10:45:21;;;;;;;3.27;1.77;;;;;;;8.85;46.91;99078.44;4992939;28;20227;-68
2021/04/15 10:48:13;;;;;;;2.27;1.67;;;;;;;9.37;44.85;99086.94;5024809;28;20293;-70
2021/04/15 10:50:52;;;;;;;3.00;1.70;;;;;;;9.51;44.08;99087.13;5027996;28;20648;-70
2021/04/15 10:53:46;;;;;;;3.63;1.80;;;;;;;10.12;42.35;99083.84;5027455;28;20210;-69
2021/04/15 10:56:29;;;;;;;8.70;1.90;;;;;;;10.62;40.73;99092.31;5030951;28;20772;-70
2021/04/15 10:59:06;;;;;;;4.37;2.00;;;;;;;10.31;39.12;99086.94;5029355;28;20216;-70
2021/04/15 11:01:37;;;;;;;2.80;1.70;;;;;;;11.08;38.47;99083.34;5026155;28;20206;-70
2021/04/15 11:04:23;;;;;;;2.10;1.77;;;;;;;10.55;39.44;99083.34;5029603;28;20665;-69
2021/04/15 11:06:53;;;;;;;2.50;1.77;;;;;;;11.59;39.07;99074.59;5030493;28;20301;-70
2021/04/15 11:09:34;;;;;;;3.37;2.03;;;;;;;11.33;39.80;99060.75;5027336;28;20210;-69
2021/04/15 11:12:06;;;;;;;3.93;2.23;;;;;;;11.83;39.01;99059.13;5028662;28;20216;-71
2021/04/15 11:14:36;;;;;;;4.13;1.97;;;;;;;10.65;39.35;99073.28;5027359;28;20234;-69
2021/04/15 11:17:14;;;;;;;2.33;1.77;;;;;;;10.25;39.87;99070.81;5026716;28;20211;-71
2021/04/15 11:19:41;;;;;;;3.73;2.23;;;;;;;10.23;38.96;99070.97;5028505;28;20203;-72
2021/04/15 11:22:15;;;;;;;3.47;2.23;;;;;;;10.61;39.06;99066.63;5031506;28;20216;-69
2021/04/15 11:24:43;;;;;;;3.37;2.10;;;;;;;10.64;38.67;99061.75;5026753;28;20232;-69
2021/04/15 11:27:10;;;;;;;3.70;1.97;;;;;;;11.29;37.98;99065.66;5027522;28;20203;-71
2021/04/15 11:29:40;;;;;;;2.53;1.60;;;;;;;9.91;38.74;99076.38;5026051;28;20585;-72
2021/04/15 11:32:29;;;;;;;1.87;1.57;;;;;;;10.45;39.12;99054.19;5028940;28;20627;-70
2021/04/15 11:35:06;;;;;;;2.77;1.30;;;;;;;10.57;38.22;99070.66;5028567;28;20228;-70
2021/04/15 11:37:34;;;;;;;2.27;1.47;;;;;;;10.64;38.50;99067.09;5028521;28;20659;-70
2021/04/15 11:40:16;;;;;;;3.10;1.87;;;;;;;10.69;39.41;99037.19;5026035;28;20209;-69
2021/04/15 11:42:43;;;;;;;3.23;1.57;;;;;;;10.68;39.33;99048.88;5029859;28;20219;-69
2021/04/15 11:45:12;;;;;;;6.17;2.17;;;;;;;10.07;40.99;99048.84;5030777;28;20214;-69
2021/04/15 11:47:40;;;;;;;3.63;1.77;;;;;;;10.05;41.54;99054.34;5030742;28;20701;-69
2021/04/15 11:50:15;;;;;;;2.43;1.70;;;;;;;9.96;41.05;99054.53;5022190;28;20221;-69
2021/04/15 11:52:46;;;;;;;2.47;1.70;;;;;;;10.32;40.02;99058.41;5029322;28;20593;-70
2021/04/15 11:55:24;;;;;;;4.80;1.83;;;;;;;10.13;38.94;99053.50;5028556;28;20234;-69
2021/04/15 11:57:57;;;;;;;3.33;1.80;;;;;;;11.58;37.64;99060.38;5025739;28;20210;-70
2021/04/15 12:00:26;;;;;;;5.97;1.80;;;;;;;11.76;37.60;99052.03;5029450;28;20198;-70
2021/04/15 12:03:20;;;;;;;3.50;1.80;;;;;;;11.29;37.10;99071.00;5030025;28;20217;-70
2021/04/15 12:05:49;;;;;;;3.40;1.80;;;;;;;11.96;37.11;99063.84;5006714;28;20226;-68
2021/04/15 12:08:18;;;;;;;3.67;1.97;;;;;;;11.44;37.43;99061.16;5024174;28;20533;-70
2021/04/15 12:10:47;;;;;;;4.40;1.90;;;;;;;11.10;37.80;99058.09;5028234;28;20261;-69
2021/04/15 12:13:19;;;;;;;2.33;1.73;;;;;;;12.03;35.99;99064.78;5030597;28;20204;-69